Big Sandy, Montana
Current Conditions -  °F | °C
As of 1:53 AM on Wednesday 26 Nov 2014 (Local Time) from KHVR Reporting Station
Light Snow Light Snow  
Wind Chill: -2°   Ceiling: 4400
Heat Index: -2°   Visibility: 4mi
Dew Point: -4°   Wind: 0mph
Humidity: 85%   Direction: NA
Pressure: 30.19"   Gusts: NA
Location:  48.18°N, 110.11°W
Report Text: KHVR 260853Z AUTO 00000KT 4SM -SN BR FEW014 SCT019 OVC044 M02/M04 A3019 RMK AO2 SNB37 SLP249 P0000 60000 T10221044 52003
Loading
Personal Weather Stations






























Interactive Weather Map New forecast layout! Learn more

10-Day Weather Forecast

Advertisements
Track Severe Weather on mobile